Time;durP1;ratioP1;P1;durP2;ratioP2;P2;SDS_P1;SDS_P2;PMS_P1;PMS_P2;Temp;Humidity;BMP_temperature;BMP_pressure;BME280_temperature;BME280_humidity;BME280_pressure;Samples;Min_cycle;Max_cycle;Signal;HPM_P1;HPM_P2
2022/01/19 00:00:48;;;;;;;78.95;34.72;;;;;;;;;;5094769;28;20067;-80
2022/01/19 00:03:14;;;;;;;80.95;33.90;;;;;;;;;;5116195;28;20108;-80
2022/01/19 00:05:41;;;;;;;76.60;33.20;;;;;;;;;;5116891;28;20085;-80
2022/01/19 00:08:07;;;;;;;71.18;32.42;;;;;;;;;;5099169;28;20512;-80
2022/01/19 00:10:33;;;;;;;76.65;34.58;;;;;;;;;;5082026;28;20044;-80
2022/01/19 00:13:00;;;;;;;77.30;34.55;;;;;;;;;;5116805;28;20039;-80
2022/01/19 00:15:27;;;;;;;72.03;33.30;;;;;;;;;;5116615;28;20495;-80
2022/01/19 00:17:56;;;;;;;75.10;32.80;;;;;;;;;;5098534;28;20104;-80
2022/01/19 00:20:22;;;;;;;73.20;33.60;;;;;;;;;;5116640;28;20062;-80
2022/01/19 00:22:49;;;;;;;78.55;33.30;;;;;;;;;;5098352;28;20043;-80
2022/01/19 00:25:15;;;;;;;83.43;34.35;;;;;;;;;;5098655;28;20544;-80
2022/01/19 00:27:41;;;;;;;84.30;35.55;;;;;;;;;;5116451;28;20083;-80
2022/01/19 00:30:08;;;;;;;86.88;36.65;;;;;;;;;;5098282;28;20472;-80
2022/01/19 00:32:34;;;;;;;84.22;35.95;;;;;;;;;;5116221;28;20041;-79
2022/01/19 00:35:00;;;;;;;78.40;35.00;;;;;;;;;;5116125;28;20035;-80
2022/01/19 00:37:26;;;;;;;87.05;34.42;;;;;;;;;;5116384;28;20047;-81
2022/01/19 00:39:52;;;;;;;87.60;36.78;;;;;;;;;;5098382;28;20122;-80
2022/01/19 00:42:19;;;;;;;85.63;36.30;;;;;;;;;;5116384;28;20086;-78
2022/01/19 00:44:45;;;;;;;98.95;38.15;;;;;;;;;;5098201;28;20481;-78
2022/01/19 00:47:11;;;;;;;91.95;38.45;;;;;;;;;;5098092;28;20098;-79
2022/01/19 00:49:38;;;;;;;99.25;39.17;;;;;;;;;;5097781;28;20047;-79
2022/01/19 00:52:04;;;;;;;93.10;39.42;;;;;;;;;;5098036;28;20384;-79
2022/01/19 00:54:30;;;;;;;92.07;38.88;;;;;;;;;;5115910;28;20389;-79
2022/01/19 00:56:56;;;;;;;89.20;38.55;;;;;;;;;;5115793;28;20563;-79
2022/01/19 00:59:22;;;;;;;99.70;38.47;;;;;;;;;;5081098;28;20126;-78
2022/01/19 01:01:49;;;;;;;83.97;36.80;;;;;;;;;;5097642;28;20126;-79
2022/01/19 01:04:15;;;;;;;88.10;37.70;;;;;;;;;;5097678;28;20059;-79
2022/01/19 01:06:41;;;;;;;89.47;36.72;;;;;;;;;;5115747;28;20039;-80
2022/01/19 01:09:07;;;;;;;91.45;36.47;;;;;;;;;;5115856;28;20131;-79
2022/01/19 01:11:36;;;;;;;89.10;36.03;;;;;;;;;;5115688;28;20482;-78
2022/01/19 01:16:33;;;;;;;82.22;34.92;;;;;;;;;;5097031;28;20471;-79
2022/01/19 01:19:00;;;;;;;85.05;35.97;;;;;;;;;;5115698;28;20039;-79
2022/01/19 01:21:26;;;;;;;80.57;36.58;;;;;;;;;;5115531;28;20043;-78
2022/01/19 01:23:52;;;;;;;82.13;35.35;;;;;;;;;;5115438;28;20089;-79
2022/01/19 01:26:18;;;;;;;93.72;36.83;;;;;;;;;;5097137;28;20122;-78
2022/01/19 01:28:44;;;;;;;80.80;35.08;;;;;;;;;;5115301;28;20036;-79
2022/01/19 01:31:11;;;;;;;81.38;32.40;;;;;;;;;;5115285;28;20550;-79
2022/01/19 01:33:37;;;;;;;75.93;31.55;;;;;;;;;;5115075;28;20127;-79
2022/01/19 01:36:04;;;;;;;67.65;31.50;;;;;;;;;;5115543;28;20495;-78
2022/01/19 01:38:30;;;;;;;74.35;32.63;;;;;;;;;;5115174;28;20184;-79
2022/01/19 01:40:56;;;;;;;84.18;31.48;;;;;;;;;;5096857;28;20067;-79
2022/01/19 01:43:22;;;;;;;75.72;31.95;;;;;;;;;;5115085;28;20490;-78
2022/01/19 01:45:53;;;;;;;71.47;31.17;;;;;;;;;;5096669;28;20039;-79
2022/01/19 01:48:23;;;;;;;71.45;29.70;;;;;;;;;;5115151;28;20066;-79
2022/01/19 01:53:35;;;;;;;79.22;32.03;;;;;;;;;;5114900;28;20101;-78
2022/01/19 01:56:01;;;;;;;70.93;28.80;;;;;;;;;;5114805;28;20430;-79
2022/01/19 01:58:29;;;;;;;75.28;31.60;;;;;;;;;;5114816;28;20096;-79
2022/01/19 02:00:55;;;;;;;70.82;28.67;;;;;;;;;;5114630;28;20039;-79
2022/01/19 02:03:21;;;;;;;75.32;29.13;;;;;;;;;;5079424;28;20043;-79
2022/01/19 02:06:22;;;;;;;73.65;28.75;;;;;;;;;;5096547;28;20130;-79
2022/01/19 02:08:45;;;;;;;71.22;27.58;;;;;;;;;;5112423;28;20043;-79
2022/01/19 02:22:02;;;;;;;57.83;24.38;;;;;;;;;;5114378;28;20051;-79
2022/01/19 02:24:33;;;;;;;56.57;23.93;;;;;;;;;;5097660;28;20044;-78
2022/01/19 02:27:09;;;;;;;64.53;24.67;;;;;;;;;;5114196;28;20100;-79
2022/01/19 02:40:29;;;;;;;54.38;22.02;;;;;;;;;;5095555;28;20480;-79
2022/01/19 02:43:07;;;;;;;55.05;21.50;;;;;;;;;;5113982;28;20040;-78
2022/01/19 02:51:05;;;;;;;53.25;21.92;;;;;;;;;;5113956;28;20046;-79
2022/01/19 02:53:35;;;;;;;55.50;21.67;;;;;;;;;;5095370;28;20476;-79
2022/01/19 02:56:07;;;;;;;54.05;22.77;;;;;;;;;;5113707;28;20122;-78
2022/01/19 02:58:39;;;;;;;55.90;22.08;;;;;;;;;;5113551;28;20051;-79
2022/01/19 03:09:19;;;;;;;56.60;22.67;;;;;;;;;;5113598;28;20084;-78
2022/01/19 03:11:45;;;;;;;60.75;22.73;;;;;;;;;;5095647;28;20044;-78
2022/01/19 03:14:12;;;;;;;68.85;24.60;;;;;;;;;;5095112;28;20043;-79
2022/01/19 03:16:38;;;;;;;56.90;23.40;;;;;;;;;;5113442;28;20043;-78
2022/01/19 03:19:07;;;;;;;71.97;24.52;;;;;;;;;;5113185;28;20036;-79
2022/01/19 03:21:33;;;;;;;69.55;25.20;;;;;;;;;;5113183;28;20079;-79
2022/01/19 03:24:00;;;;;;;65.57;25.13;;;;;;;;;;5113214;28;20119;-79
2022/01/19 03:26:27;;;;;;;68.18;25.45;;;;;;;;;;5095235;28;20047;-79
2022/01/19 03:28:53;;;;;;;63.75;24.02;;;;;;;;;;5113091;28;20043;-79
2022/01/19 03:31:19;;;;;;;61.92;24.85;;;;;;;;;;5095113;28;20047;-79
2022/01/19 03:33:46;;;;;;;73.47;26.95;;;;;;;;;;5095056;28;20087;-79
2022/01/19 03:36:12;;;;;;;74.10;26.33;;;;;;;;;;5094846;28;20047;-78
2022/01/19 03:38:38;;;;;;;90.53;29.67;;;;;;;;;;5113272;28;20473;-78
2022/01/19 03:41:04;;;;;;;106.97;29.00;;;;;;;;;;5112943;28;20485;-79
2022/01/19 03:43:30;;;;;;;115.03;31.50;;;;;;;;;;5113074;28;20048;-79
2022/01/19 03:45:59;;;;;;;363.30;36.63;;;;;;;;;;5112931;28;20046;-79
2022/01/19 03:48:36;;;;;;;247.23;34.35;;;;;;;;;;5095073;28;20043;-79
2022/01/19 03:51:03;;;;;;;337.88;34.30;;;;;;;;;;5112775;28;20052;-79
2022/01/19 03:53:29;;;;;;;220.20;31.23;;;;;;;;;;5112986;28;20039;-79
2022/01/19 03:55:56;;;;;;;235.93;31.27;;;;;;;;;;5112817;28;20054;-79
2022/01/19 03:58:22;;;;;;;252.27;30.67;;;;;;;;;;5094897;28;20051;-79
2022/01/19 04:00:53;;;;;;;193.85;29.85;;;;;;;;;;5094725;28;20051;-79
2022/01/19 04:03:25;;;;;;;219.70;29.50;;;;;;;;;;5093953;28;20051;-79
2022/01/19 04:08:17;;;;;;;315.58;32.38;;;;;;;;;;5112629;28;20051;-78
2022/01/19 04:10:43;;;;;;;361.58;33.42;;;;;;;;;;5112734;28;20090;-79
2022/01/19 04:15:51;;;;;;;202.70;29.30;;;;;;;;;;5112409;28;20489;-78
2022/01/19 04:18:17;;;;;;;367.15;35.65;;;;;;;;;;5112822;28;20066;-79
2022/01/19 04:20:48;;;;;;;277.02;32.38;;;;;;;;;;5112582;28;20481;-78
2022/01/19 04:23:15;;;;;;;219.15;31.02;;;;;;;;;;5112699;28;20079;-79
2022/01/19 04:25:41;;;;;;;251.82;33.58;;;;;;;;;;5112532;28;20043;-78
2022/01/19 04:28:07;;;;;;;183.25;30.85;;;;;;;;;;5112541;28;20387;-79
2022/01/19 04:30:37;;;;;;;197.43;33.65;;;;;;;;;;5112448;28;20044;-78
2022/01/19 04:33:11;;;;;;;195.05;32.63;;;;;;;;;;5112587;28;20092;-78
2022/01/19 04:35:45;;;;;;;161.88;30.20;;;;;;;;;;5094268;28;20078;-77
2022/01/19 05:15:44;;;;;;;91.70;34.17;;;;;;;;;;5097327;28;20104;-78
2022/01/19 05:18:10;;;;;;;82.57;33.92;;;;;;;;;;5097411;28;20090;-78
2022/01/19 05:20:36;;;;;;;95.07;36.05;;;;;;;;;;5115604;28;20047;-78
2022/01/19 05:23:02;;;;;;;87.35;35.13;;;;;;;;;;5097592;28;20046;-78
2022/01/19 05:25:28;;;;;;;83.28;35.50;;;;;;;;;;5115628;28;20042;-78
2022/01/19 05:27:54;;;;;;;75.43;32.78;;;;;;;;;;5080527;28;20035;-78
2022/01/19 05:30:21;;;;;;;75.60;31.85;;;;;;;;;;5115161;28;20083;-78
2022/01/19 05:32:47;;;;;;;78.68;32.25;;;;;;;;;;5115172;28;20054;-78
2022/01/19 05:35:13;;;;;;;71.93;31.40;;;;;;;;;;5096964;28;20392;-78
2022/01/19 05:37:40;;;;;;;99.40;35.70;;;;;;;;;;5097365;28;20039;-79
2022/01/19 05:40:07;;;;;;;93.90;34.65;;;;;;;;;;5115297;28;20432;-79
2022/01/19 05:42:33;;;;;;;103.43;33.88;;;;;;;;;;5115333;28;20113;-79
2022/01/19 05:44:59;;;;;;;76.80;32.80;;;;;;;;;;5115193;28;20091;-79
2022/01/19 05:47:25;;;;;;;82.13;33.13;;;;;;;;;;5114987;28;20042;-79
2022/01/19 05:49:51;;;;;;;101.47;35.83;;;;;;;;;;5114831;28;20444;-78
2022/01/19 05:52:19;;;;;;;102.05;35.38;;;;;;;;;;5114860;28;20131;-78
2022/01/19 05:54:45;;;;;;;113.15;34.95;;;;;;;;;;5114685;28;20065;-79
2022/01/19 05:57:12;;;;;;;96.47;35.80;;;;;;;;;;5096586;28;20372;-79
2022/01/19 05:59:38;;;;;;;108.97;37.60;;;;;;;;;;5113417;28;20083;-78
2022/01/19 06:02:04;;;;;;;85.35;39.45;;;;;;;;;;5096265;28;20075;-78
2022/01/19 06:04:30;;;;;;;93.85;40.67;;;;;;;;;;5114795;28;20131;-78
2022/01/19 06:06:57;;;;;;;98.97;38.58;;;;;;;;;;5114690;28;20397;-78
2022/01/19 06:09:48;;;;;;;96.28;39.58;;;;;;;;;;5096749;28;20035;-79
2022/01/19 06:12:15;;;;;;;100.80;38.55;;;;;;;;;;5096411;28;20047;-79
2022/01/19 06:14:43;;;;;;;82.63;35.40;;;;;;;;;;5114676;28;20090;-79
2022/01/19 06:17:11;;;;;;;92.25;36.42;;;;;;;;;;5114612;28;20037;-79
2022/01/19 06:19:37;;;;;;;92.75;40.63;;;;;;;;;;5114188;28;20039;-80
2022/01/19 06:22:03;;;;;;;84.13;36.78;;;;;;;;;;5096300;28;20079;-79
2022/01/19 06:24:29;;;;;;;89.00;38.33;;;;;;;;;;5079610;28;20126;-79
2022/01/19 06:26:56;;;;;;;78.70;36.13;;;;;;;;;;5114242;28;20127;-79
2022/01/19 06:29:22;;;;;;;91.95;38.63;;;;;;;;;;5113986;28;20108;-78
2022/01/19 06:31:48;;;;;;;90.38;38.40;;;;;;;;;;5096198;28;20048;-78
2022/01/19 06:34:15;;;;;;;84.88;39.80;;;;;;;;;;5095477;28;20122;-79
2022/01/19 06:36:41;;;;;;;95.10;40.10;;;;;;;;;;5096087;28;20047;-79
2022/01/19 06:39:08;;;;;;;91.40;38.90;;;;;;;;;;5096034;28;20505;-79
2022/01/19 06:41:34;;;;;;;88.80;38.08;;;;;;;;;;5113793;28;20131;-79
2022/01/19 06:44:00;;;;;;;85.88;38.72;;;;;;;;;;5096171;28;20052;-79
2022/01/19 06:46:26;;;;;;;85.05;37.38;;;;;;;;;;5114057;28;20084;-78
2022/01/19 06:48:52;;;;;;;78.15;35.78;;;;;;;;;;5113918;28;20112;-79
2022/01/19 06:51:18;;;;;;;81.63;37.83;;;;;;;;;;5095260;28;20477;-79
2022/01/19 06:53:44;;;;;;;73.13;35.30;;;;;;;;;;5113781;28;20097;-79
2022/01/19 06:56:11;;;;;;;69.00;33.75;;;;;;;;;;5095405;28;20047;-79
2022/01/19 06:58:37;;;;;;;70.90;34.97;;;;;;;;;;5113851;28;20176;-79
2022/01/19 07:01:03;;;;;;;67.15;34.78;;;;;;;;;;5113380;28;20099;-79
2022/01/19 07:03:32;;;;;;;64.28;33.00;;;;;;;;;;5113135;28;20428;-79
2022/01/19 07:05:58;;;;;;;65.13;32.58;;;;;;;;;;5095929;28;20384;-79
2022/01/19 07:08:24;;;;;;;64.28;33.05;;;;;;;;;;5113424;28;20044;-79
2022/01/19 07:10:50;;;;;;;55.25;31.40;;;;;;;;;;5095062;28;20092;-79
2022/01/19 07:13:17;;;;;;;61.45;32.58;;;;;;;;;;5095323;28;20427;-79
2022/01/19 07:15:44;;;;;;;53.78;29.58;;;;;;;;;;5113392;28;20051;-79
2022/01/19 07:18:10;;;;;;;55.22;30.95;;;;;;;;;;5113405;28;20092;-79
2022/01/19 07:20:36;;;;;;;55.80;29.35;;;;;;;;;;5113312;28;20040;-78
2022/01/19 07:23:02;;;;;;;53.45;30.10;;;;;;;;;;5113279;28;20130;-79
2022/01/19 07:25:29;;;;;;;52.22;28.73;;;;;;;;;;5084220;28;20040;-79
2022/01/19 07:27:55;;;;;;;51.28;29.55;;;;;;;;;;5109103;28;20043;-79
2022/01/19 07:30:22;;;;;;;51.05;29.77;;;;;;;;;;5113198;28;20399;-80
2022/01/19 07:32:49;;;;;;;53.00;30.27;;;;;;;;;;5113312;28;20058;-80
2022/01/19 07:35:16;;;;;;;52.63;29.80;;;;;;;;;;5094468;28;20086;-80
2022/01/19 07:37:43;;;;;;;54.30;31.75;;;;;;;;;;5112504;28;20122;-79
2022/01/19 07:40:09;;;;;;;55.15;29.50;;;;;;;;;;5093392;28;20535;-79
2022/01/19 07:42:35;;;;;;;56.58;30.33;;;;;;;;;;5111868;28;20085;-80
2022/01/19 07:45:01;;;;;;;57.65;32.08;;;;;;;;;;5094616;28;20092;-80
2022/01/19 07:47:28;;;;;;;56.17;31.42;;;;;;;;;;5077874;28;20495;-79
2022/01/19 07:49:56;;;;;;;56.15;32.92;;;;;;;;;;5112615;28;20082;-79
2022/01/19 07:52:22;;;;;;;57.65;32.38;;;;;;;;;;5112656;28;20495;-79
2022/01/19 07:54:48;;;;;;;60.25;32.35;;;;;;;;;;5112483;28;20094;-79
2022/01/19 07:57:14;;;;;;;56.80;33.17;;;;;;;;;;5112569;28;20044;-79
2022/01/19 07:59:40;;;;;;;54.60;31.27;;;;;;;;;;5060915;28;20369;-79
2022/01/19 08:02:06;;;;;;;57.33;31.55;;;;;;;;;;5112061;28;20043;-79
2022/01/19 08:04:32;;;;;;;56.35;32.78;;;;;;;;;;5112385;28;20184;-79
2022/01/19 08:06:59;;;;;;;55.25;33.00;;;;;;;;;;5094187;28;20043;-79
2022/01/19 08:09:25;;;;;;;50.15;31.23;;;;;;;;;;5112601;28;20039;-80
2022/01/19 08:11:51;;;;;;;51.95;31.65;;;;;;;;;;5094562;28;20127;-78
2022/01/19 08:14:18;;;;;;;49.10;31.58;;;;;;;;;;5094490;28;20384;-79
2022/01/19 08:16:44;;;;;;;48.70;30.95;;;;;;;;;;5112659;28;20435;-79
2022/01/19 08:19:10;;;;;;;59.58;37.55;;;;;;;;;;5094494;28;20040;-78
2022/01/19 08:21:36;;;;;;;57.58;34.25;;;;;;;;;;5112432;28;20086;-78
2022/01/19 08:24:03;;;;;;;54.55;35.72;;;;;;;;;;5115343;28;20165;-78
2022/01/19 08:26:29;;;;;;;48.97;33.30;;;;;;;;;;5116534;28;20044;-79
2022/01/19 08:28:55;;;;;;;51.33;34.90;;;;;;;;;;5116389;28;20500;-79
2022/01/19 08:31:21;;;;;;;53.78;33.17;;;;;;;;;;5116596;28;20118;-79
2022/01/19 08:33:47;;;;;;;48.67;33.47;;;;;;;;;;5116400;28;20058;-79
2022/01/19 08:36:15;;;;;;;50.92;32.97;;;;;;;;;;5097954;28;20428;-80
2022/01/19 08:38:42;;;;;;;50.35;34.25;;;;;;;;;;5098325;28;20058;-79
2022/01/19 08:41:08;;;;;;;51.67;33.50;;;;;;;;;;5098102;28;20118;-78
2022/01/19 08:43:34;;;;;;;47.67;33.53;;;;;;;;;;5116263;28;20069;-79
2022/01/19 08:46:00;;;;;;;48.97;33.70;;;;;;;;;;5116205;28;20086;-79
2022/01/19 08:48:27;;;;;;;50.85;35.30;;;;;;;;;;5098201;28;20130;-79
2022/01/19 08:50:53;;;;;;;48.63;32.97;;;;;;;;;;5097703;28;20408;-79
2022/01/19 08:53:19;;;;;;;52.38;35.42;;;;;;;;;;5098275;28;20051;-79
2022/01/19 08:55:46;;;;;;;47.95;32.85;;;;;;;;;;5115990;28;20431;-80
2022/01/19 08:58:13;;;;;;;50.38;35.10;;;;;;;;;;5097722;28;20039;-80
2022/01/19 09:00:40;;;;;;;52.72;36.95;;;;;;;;;;5115957;28;20046;-79
2022/01/19 09:03:06;;;;;;;54.05;37.00;;;;;;;;;;5115390;28;20424;-78
2022/01/19 09:05:33;;;;;;;54.92;36.40;;;;;;;;;;5116124;28;20048;-79
2022/01/19 09:08:00;;;;;;;54.28;38.13;;;;;;;;;;5115769;28;20072;-79
2022/01/19 09:10:26;;;;;;;52.13;35.58;;;;;;;;;;5115982;28;20048;-79
2022/01/19 09:12:52;;;;;;;55.15;37.65;;;;;;;;;;5097740;28;20044;-78
2022/01/19 09:15:18;;;;;;;54.60;38.80;;;;;;;;;;5115686;28;20079;-79
2022/01/19 09:17:45;;;;;;;57.40;39.60;;;;;;;;;;5115550;28;20051;-79
2022/01/19 09:20:12;;;;;;;55.42;38.35;;;;;;;;;;5115744;28;20063;-80
2022/01/19 09:22:39;;;;;;;55.63;40.17;;;;;;;;;;5115521;28;20054;-80
2022/01/19 09:25:06;;;;;;;56.90;39.83;;;;;;;;;;5097079;28;20054;-80
2022/01/19 09:27:33;;;;;;;57.83;41.05;;;;;;;;;;5115233;28;20521;-79
2022/01/19 09:29:59;;;;;;;54.92;39.03;;;;;;;;;;5097069;28;20043;-79
2022/01/19 09:32:26;;;;;;;57.40;41.33;;;;;;;;;;5107932;28;20031;-78
2022/01/19 09:34:56;;;;;;;57.40;39.45;;;;;;;;;;5096782;28;20043;-80
2022/01/19 09:37:23;;;;;;;59.22;41.53;;;;;;;;;;5115306;28;20039;-80
2022/01/19 09:39:49;;;;;;;59.15;40.70;;;;;;;;;;5080302;28;20126;-78
2022/01/19 09:42:16;;;;;;;59.20;39.70;;;;;;;;;;5115010;28;20130;-79
2022/01/19 09:44:42;;;;;;;60.28;40.38;;;;;;;;;;5115194;28;20172;-79
2022/01/19 09:47:08;;;;;;;54.13;39.10;;;;;;;;;;5114845;28;20130;-79
2022/01/19 09:49:34;;;;;;;57.60;40.15;;;;;;;;;;5096840;28;20078;-79
2022/01/19 09:52:01;;;;;;;57.03;39.10;;;;;;;;;;5096785;28;20043;-79
2022/01/19 09:54:30;;;;;;;56.75;39.72;;;;;;;;;;5115027;28;20104;-79
2022/01/19 09:56:56;;;;;;;66.65;44.95;;;;;;;;;;5095757;28;20047;-79
2022/01/19 09:59:22;;;;;;;61.97;42.95;;;;;;;;;;5114734;28;20040;-79
2022/01/19 10:01:53;;;;;;;59.28;42.22;;;;;;;;;;5096164;28;20464;-79
2022/01/19 10:04:20;;;;;;;61.05;41.63;;;;;;;;;;5133858;27;20047;-79
2022/01/19 10:06:47;;;;;;;59.63;39.35;;;;;;;;;;5116973;27;20043;-79
2022/01/19 10:09:13;;;;;;;54.85;39.20;;;;;;;;;;5135126;27;20050;-79
2022/01/19 10:17:11;;;;;;;63.28;40.95;;;;;;;;;;5071499;28;20048;-80
2022/01/19 10:19:50;;;;;;;58.40;39.95;;;;;;;;;;5121633;27;20092;-80
2022/01/19 10:22:25;;;;;;;59.67;40.00;;;;;;;;;;5135077;27;20114;-79
2022/01/19 10:25:00;;;;;;;59.85;40.42;;;;;;;;;;5135114;27;20047;-78
2022/01/19 10:27:32;;;;;;;66.63;42.65;;;;;;;;;;5116369;27;20054;-79
2022/01/19 10:30:04;;;;;;;65.85;43.13;;;;;;;;;;5134916;27;20126;-79
2022/01/19 10:32:33;;;;;;;73.22;45.50;;;;;;;;;;5116281;27;20469;-79
2022/01/19 10:35:12;;;;;;;65.75;43.40;;;;;;;;;;5134517;27;20129;-79
2022/01/19 10:37:39;;;;;;;65.93;41.38;;;;;;;;;;5134723;27;20126;-80
2022/01/19 10:40:05;;;;;;;70.03;43.63;;;;;;;;;;5134620;27;20087;-79
2022/01/19 10:42:32;;;;;;;66.20;42.72;;;;;;;;;;5116332;27;20050;-80
2022/01/19 10:45:05;;;;;;;64.55;41.30;;;;;;;;;;5115951;27;20043;-79
2022/01/19 10:47:38;;;;;;;62.40;43.15;;;;;;;;;;5133992;27;20365;-80
2022/01/19 10:50:05;;;;;;;68.10;42.63;;;;;;;;;;5134326;27;20046;-79
2022/01/19 10:52:33;;;;;;;69.95;44.47;;;;;;;;;;5134317;27;20447;-79
2022/01/19 10:55:00;;;;;;;74.25;46.80;;;;;;;;;;5115881;27;20536;-80
2022/01/19 10:57:27;;;;;;;67.90;44.03;;;;;;;;;;5134090;27;20459;-80
2022/01/19 11:00:09;;;;;;;74.32;45.75;;;;;;;;;;5133958;27;20046;-79
2022/01/19 11:02:38;;;;;;;69.93;43.67;;;;;;;;;;5098576;27;20556;-79
2022/01/19 11:05:04;;;;;;;70.38;42.65;;;;;;;;;;5134276;27;20054;-80
2022/01/19 11:07:30;;;;;;;75.15;46.20;;;;;;;;;;5134105;27;20109;-80
2022/01/19 11:10:00;;;;;;;75.63;45.20;;;;;;;;;;5115718;27;20045;-80
2022/01/19 11:12:33;;;;;;;71.55;45.97;;;;;;;;;;5115377;27;20043;-78
2022/01/19 11:14:59;;;;;;;77.57;46.65;;;;;;;;;;5115573;27;20043;-78
2022/01/19 11:17:25;;;;;;;79.28;47.15;;;;;;;;;;5134009;27;20045;-79
2022/01/19 11:19:51;;;;;;;82.07;50.38;;;;;;;;;;5098832;27;20131;-79
2022/01/19 11:22:24;;;;;;;83.75;49.90;;;;;;;;;;5115665;27;20057;-79
2022/01/19 11:25:03;;;;;;;85.82;50.13;;;;;;;;;;5098348;27;20055;-79
2022/01/19 11:27:40;;;;;;;84.63;48.70;;;;;;;;;;5133632;27;20537;-79
2022/01/19 11:30:12;;;;;;;89.70;50.38;;;;;;;;;;5133599;27;20043;-80
2022/01/19 11:32:38;;;;;;;87.28;52.13;;;;;;;;;;5133591;27;20081;-79
2022/01/19 11:35:05;;;;;;;87.68;51.00;;;;;;;;;;5133458;27;20488;-79
2022/01/19 11:37:44;;;;;;;89.22;50.58;;;;;;;;;;5133452;27;20476;-79
2022/01/19 11:40:16;;;;;;;93.55;52.53;;;;;;;;;;5133662;27;20050;-79
2022/01/19 11:42:42;;;;;;;93.55;49.40;;;;;;;;;;5133659;27;20068;-79
2022/01/19 11:45:10;;;;;;;91.65;51.95;;;;;;;;;;5133591;27;20043;-78
2022/01/19 11:47:38;;;;;;;91.65;52.70;;;;;;;;;;5133437;27;20066;-79
2022/01/19 11:50:06;;;;;;;102.18;54.65;;;;;;;;;;5115156;28;20133;-79
2022/01/19 11:52:35;;;;;;;96.22;52.03;;;;;;;;;;5133230;28;20043;-79
2022/01/19 11:55:20;;;;;;;96.68;50.42;;;;;;;;;;5133474;28;20046;-80
2022/01/19 11:57:48;;;;;;;97.13;51.67;;;;;;;;;;5100297;27;20130;-80
2022/01/19 12:00:24;;;;;;;102.47;53.65;;;;;;;;;;5119404;27;20051;-80
2022/01/19 12:02:55;;;;;;;100.85;53.65;;;;;;;;;;5137312;27;20496;-78
2022/01/19 12:05:24;;;;;;;110.68;57.58;;;;;;;;;;5137456;27;20068;-79
2022/01/19 12:08:01;;;;;;;108.43;56.33;;;;;;;;;;5119183;27;20080;-79
2022/01/19 12:10:31;;;;;;;120.28;57.03;;;;;;;;;;5137494;27;20430;-79
2022/01/19 12:13:16;;;;;;;110.63;54.55;;;;;;;;;;5137345;27;20104;-79
2022/01/19 12:15:53;;;;;;;112.65;55.65;;;;;;;;;;5137521;27;20126;-78
2022/01/19 12:18:35;;;;;;;108.32;52.97;;;;;;;;;;5137401;27;20043;-78
2022/01/19 12:21:01;;;;;;;112.40;54.80;;;;;;;;;;5137206;27;20146;-78
2022/01/19 12:23:29;;;;;;;107.22;52.97;;;;;;;;;;5137223;27;20131;-80
2022/01/19 12:25:56;;;;;;;107.45;55.60;;;;;;;;;;5137105;27;20096;-78
2022/01/19 12:28:58;;;;;;;118.90;57.63;;;;;;;;;;5137177;27;20078;-79
2022/01/19 12:31:26;;;;;;;113.03;56.17;;;;;;;;;;5017255;28;20045;-79
2022/01/19 12:34:06;;;;;;;113.15;56.15;;;;;;;;;;5101051;28;20492;-79
2022/01/19 12:36:43;;;;;;;111.57;54.05;;;;;;;;;;5116385;28;20556;-80
2022/01/19 12:39:28;;;;;;;106.85;54.85;;;;;;;;;;5116393;28;20036;-79
2022/01/19 12:42:17;;;;;;;101.10;54.22;;;;;;;;;;5098427;28;20106;-79
2022/01/19 12:44:53;;;;;;;108.22;55.88;;;;;;;;;;5116354;28;20054;-79
2022/01/19 12:47:28;;;;;;;108.63;55.00;;;;;;;;;;5116269;28;20097;-79
2022/01/19 12:50:09;;;;;;;106.43;55.13;;;;;;;;;;5116378;28;20438;-80
2022/01/19 12:52:43;;;;;;;103.85;54.15;;;;;;;;;;5116241;28;20066;-80
2022/01/19 12:55:14;;;;;;;106.68;56.58;;;;;;;;;;5116391;28;20687;-80
2022/01/19 12:57:41;;;;;;;109.22;57.70;;;;;;;;;;5097895;28;20047;-79
2022/01/19 13:00:09;;;;;;;101.53;54.15;;;;;;;;;;5116117;28;20070;-79
2022/01/19 13:02:35;;;;;;;121.78;58.13;;;;;;;;;;5115633;28;20090;-79
2022/01/19 13:05:09;;;;;;;101.75;53.67;;;;;;;;;;5115725;28;20095;-79
2022/01/19 13:07:39;;;;;;;107.97;55.42;;;;;;;;;;5115977;28;20075;-79
2022/01/19 13:10:19;;;;;;;105.18;55.40;;;;;;;;;;5097031;28;20039;-78
2022/01/19 13:13:07;;;;;;;102.93;51.88;;;;;;;;;;5097914;28;20048;-78
2022/01/19 13:15:43;;;;;;;99.82;52.58;;;;;;;;;;5115489;28;20056;-79
2022/01/19 13:18:09;;;;;;;105.75;54.20;;;;;;;;;;5115702;28;20051;-80
2022/01/19 13:20:35;;;;;;;105.70;54.58;;;;;;;;;;5115638;28;20042;-79
2022/01/19 13:23:04;;;;;;;94.97;51.40;;;;;;;;;;5097092;28;20059;-78
2022/01/19 13:25:32;;;;;;;94.15;51.88;;;;;;;;;;5097581;28;20043;-79
2022/01/19 13:28:02;;;;;;;102.47;53.75;;;;;;;;;;5115318;28;20047;-80
2022/01/19 13:30:30;;;;;;;95.20;50.35;;;;;;;;;;5115644;28;20039;-79
2022/01/19 13:32:56;;;;;;;98.80;52.58;;;;;;;;;;5115262;28;20388;-80
2022/01/19 13:35:23;;;;;;;106.45;53.65;;;;;;;;;;5097192;28;20054;-80
2022/01/19 13:37:55;;;;;;;97.68;52.50;;;;;;;;;;5097113;28;20050;-79
2022/01/19 13:40:25;;;;;;;91.50;49.05;;;;;;;;;;5097230;28;20048;-79
2022/01/19 13:42:52;;;;;;;95.93;53.08;;;;;;;;;;5115278;28;20131;-80
2022/01/19 13:46:02;;;;;;;85.78;49.95;;;;;;;;;;5115131;28;20052;-79
2022/01/19 13:50:45;;;;;;;88.90;49.83;;;;;;;;;;5114677;28;20043;-79
2022/01/19 13:53:11;;;;;;;91.35;48.78;;;;;;;;;;5115155;28;20045;-79
2022/01/19 13:55:38;;;;;;;90.03;49.28;;;;;;;;;;5114667;28;20043;-80
2022/01/19 13:58:05;;;;;;;90.40;49.90;;;;;;;;;;5079725;28;20043;-80
2022/01/19 14:00:31;;;;;;;82.50;48.47;;;;;;;;;;5114776;28;20148;-79
2022/01/19 14:03:02;;;;;;;85.72;48.10;;;;;;;;;;5096366;28;20055;-80
2022/01/19 14:05:39;;;;;;;89.45;50.92;;;;;;;;;;5114696;28;20049;-80
2022/01/19 14:08:05;;;;;;;88.70;47.83;;;;;;;;;;5096289;28;20043;-79
2022/01/19 14:10:41;;;;;;;79.40;46.85;;;;;;;;;;5079828;28;20048;-79
2022/01/19 14:13:26;;;;;;;82.35;47.45;;;;;;;;;;5114518;28;20040;-79
2022/01/19 14:15:53;;;;;;;81.40;49.20;;;;;;;;;;5114203;28;20051;-78
2022/01/19 14:18:19;;;;;;;85.47;47.63;;;;;;;;;;5114729;28;20131;-78
2022/01/19 14:20:45;;;;;;;81.50;47.17;;;;;;;;;;5113445;28;20039;-79
2022/01/19 14:23:15;;;;;;;82.30;46.25;;;;;;;;;;5114486;28;20392;-78
2022/01/19 14:25:43;;;;;;;78.95;45.42;;;;;;;;;;5114287;28;20089;-79
2022/01/19 14:28:16;;;;;;;82.13;46.33;;;;;;;;;;5114262;28;20048;-79
2022/01/19 14:30:42;;;;;;;74.32;44.53;;;;;;;;;;5096165;28;20051;-79
2022/01/19 14:33:10;;;;;;;76.40;44.10;;;;;;;;;;5096028;28;20075;-80
2022/01/19 14:35:46;;;;;;;81.13;45.67;;;;;;;;;;5095654;28;20051;-80
2022/01/19 14:38:32;;;;;;;77.25;43.10;;;;;;;;;;5095783;28;20334;-79
2022/01/19 14:41:04;;;;;;;76.75;45.63;;;;;;;;;;5114162;28;20047;-79
2022/01/19 14:43:37;;;;;;;73.82;42.67;;;;;;;;;;5114048;28;20086;-80
2022/01/19 14:46:08;;;;;;;75.47;44.45;;;;;;;;;;5113944;28;20056;-81
2022/01/19 14:48:43;;;;;;;95.45;51.60;;;;;;;;;;5113871;28;20088;-80
2022/01/19 14:51:17;;;;;;;86.50;47.35;;;;;;;;;;5113755;28;20043;-80
2022/01/19 14:53:43;;;;;;;79.15;45.75;;;;;;;;;;5113878;28;20127;-78
2022/01/19 14:56:09;;;;;;;77.88;45.10;;;;;;;;;;5095146;28;20054;-80
2022/01/19 14:58:35;;;;;;;76.50;42.85;;;;;;;;;;5095923;28;20411;-80
2022/01/19 15:01:01;;;;;;;72.72;42.15;;;;;;;;;;5095603;28;20451;-80
2022/01/19 15:03:27;;;;;;;75.28;42.95;;;;;;;;;;5113566;28;20091;-79
2022/01/19 15:05:54;;;;;;;70.88;43.33;;;;;;;;;;5095406;28;20409;-80
2022/01/19 15:08:20;;;;;;;81.82;44.67;;;;;;;;;;5113662;28;20040;-80
2022/01/19 15:10:46;;;;;;;71.97;43.40;;;;;;;;;;5113290;28;20118;-80
2022/01/19 15:13:12;;;;;;;75.32;44.08;;;;;;;;;;5095208;28;20075;-81
2022/01/19 15:15:38;;;;;;;73.68;42.03;;;;;;;;;;5113383;28;20050;-79
2022/01/19 15:18:06;;;;;;;75.63;45.30;;;;;;;;;;5113195;28;20096;-79
2022/01/19 15:20:34;;;;;;;74.15;42.90;;;;;;;;;;5113090;28;20416;-80
2022/01/19 15:23:00;;;;;;;74.32;42.58;;;;;;;;;;5095408;28;20046;-80
2022/01/19 15:25:31;;;;;;;78.57;44.25;;;;;;;;;;5113275;28;20047;-79
2022/01/19 15:27:59;;;;;;;76.85;44.10;;;;;;;;;;5113253;28;20440;-79
2022/01/19 15:30:26;;;;;;;74.57;41.95;;;;;;;;;;5113237;28;20054;-80
2022/01/19 15:32:52;;;;;;;66.55;38.72;;;;;;;;;;5094586;28;20126;-80
2022/01/19 15:35:18;;;;;;;81.15;42.67;;;;;;;;;;5112774;28;20035;-80
2022/01/19 15:37:45;;;;;;;61.60;36.50;;;;;;;;;;5113121;28;20044;-79
2022/01/19 15:40:13;;;;;;;80.53;43.00;;;;;;;;;;5112995;28;20051;-80
2022/01/19 15:42:42;;;;;;;83.22;43.55;;;;;;;;;;5113223;28;20069;-80
2022/01/19 15:45:09;;;;;;;75.93;41.58;;;;;;;;;;5112883;28;20096;-79
2022/01/19 15:47:35;;;;;;;72.50;39.45;;;;;;;;;;5112761;28;20047;-80
2022/01/19 15:50:01;;;;;;;61.70;34.53;;;;;;;;;;5112898;28;20078;-79
2022/01/19 15:52:27;;;;;;;68.82;36.75;;;;;;;;;;5112494;28;20092;-80